createdAt,value
2023-01-05T00:01:10.059Z,0.40
2023-01-05T00:03:37.356Z,0.30
2023-01-05T00:06:06.839Z,0.30
2023-01-05T00:08:37.436Z,0.30
2023-01-05T00:11:32.366Z,0.43
2023-01-05T00:14:17.970Z,0.33
2023-01-05T00:17:03.321Z,0.40
2023-01-05T00:19:48.734Z,0.30
2023-01-05T00:22:32.348Z,0.50
2023-01-05T00:25:12.223Z,0.30
2023-01-05T00:27:44.702Z,0.40
2023-01-05T00:30:14.403Z,0.27
2023-01-05T00:32:42.280Z,0.30
2023-01-05T00:35:10.281Z,0.30
2023-01-05T00:37:38.421Z,0.30
2023-01-05T00:40:11.116Z,0.40
2023-01-05T00:42:38.227Z,0.30
2023-01-05T00:45:10.728Z,0.40
2023-01-05T00:47:37.231Z,0.40
2023-01-05T00:50:04.916Z,0.40
2023-01-05T00:52:31.404Z,0.50
2023-01-05T00:54:57.933Z,0.50
2023-01-05T00:57:24.577Z,0.57
2023-01-05T00:59:52.871Z,0.90
2023-01-05T01:02:19.723Z,0.60
2023-01-05T01:04:46.329Z,0.60
2023-01-05T01:07:12.839Z,0.70
2023-01-05T01:09:40.538Z,0.80
2023-01-05T01:12:07.389Z,0.67
2023-01-05T01:14:34.755Z,0.70
2023-01-05T01:17:01.271Z,0.70
2023-01-05T01:19:28.403Z,0.70
2023-01-05T01:21:55.391Z,0.70
2023-01-05T01:24:27.491Z,0.77
2023-01-05T01:26:55.464Z,0.83
2023-01-05T01:29:24.085Z,0.60
2023-01-05T01:31:53.327Z,0.70
2023-01-05T01:34:20.229Z,0.50
2023-01-05T01:36:47.059Z,0.57
2023-01-05T01:39:15.391Z,0.70
2023-01-05T01:41:46.255Z,0.80
2023-01-05T01:44:48.098Z,0.50
2023-01-05T01:47:34.961Z,0.43
2023-01-05T01:50:08.497Z,0.33
2023-01-05T01:52:35.778Z,0.30
2023-01-05T01:55:05.415Z,0.20
2023-01-05T01:57:33.580Z,0.30
2023-01-05T02:00:02.530Z,0.30
2023-01-05T02:02:30.565Z,0.30
2023-01-05T02:05:02.079Z,0.20
2023-01-05T02:07:33.626Z,0.20
2023-01-05T02:10:02.455Z,0.10
2023-01-05T02:12:31.983Z,0.20
2023-01-05T02:15:10.759Z,0.20
2023-01-05T02:18:01.577Z,0.20
2023-01-05T02:20:32.497Z,0.23
2023-01-05T02:23:30.033Z,0.20
2023-01-05T02:26:28.010Z,0.20
2023-01-05T02:29:41.711Z,0.30
2023-01-05T02:32:18.741Z,0.30
2023-01-05T02:35:13.777Z,0.47
2023-01-05T02:38:04.577Z,0.40
2023-01-05T02:40:55.216Z,0.50
2023-01-05T02:43:22.221Z,0.40
2023-01-05T02:45:48.891Z,0.40
2023-01-05T02:48:15.951Z,0.47
2023-01-05T02:50:47.021Z,0.40
2023-01-05T02:53:27.912Z,0.30
2023-01-05T02:55:59.217Z,0.33
2023-01-05T02:58:36.749Z,0.40
2023-01-05T03:01:10.286Z,0.40
2023-01-05T03:03:43.034Z,0.50
2023-01-05T03:06:13.551Z,0.40
2023-01-05T03:08:49.841Z,0.40
2023-01-05T03:11:36.980Z,0.50
2023-01-05T03:14:25.440Z,0.57
2023-01-05T03:16:56.293Z,0.60
2023-01-05T03:19:39.391Z,0.50
2023-01-05T03:22:38.052Z,0.63
2023-01-05T03:25:26.964Z,0.67
2023-01-05T03:28:14.297Z,0.60
2023-01-05T03:31:28.648Z,0.90
2023-01-05T03:34:26.618Z,1.20
2023-01-05T03:36:59.911Z,1.53
2023-01-05T03:39:29.068Z,1.40
2023-01-05T03:41:59.848Z,1.33
2023-01-05T03:44:27.143Z,1.50
2023-01-05T03:46:53.872Z,1.67
2023-01-05T03:49:20.471Z,1.33
2023-01-05T03:51:49.241Z,1.60
2023-01-05T03:54:15.999Z,1.67
2023-01-05T03:56:43.161Z,1.80
2023-01-05T03:59:10.178Z,1.53
2023-01-05T04:01:38.839Z,1.50
2023-01-05T04:04:05.559Z,1.90
2023-01-05T04:06:32.218Z,1.73
2023-01-05T04:08:59.001Z,2.20
2023-01-05T04:11:25.824Z,1.63
2023-01-05T04:14:00.093Z,1.93
2023-01-05T04:16:28.533Z,1.87
2023-01-05T04:18:58.073Z,2.00
2023-01-05T04:21:24.598Z,2.33
2023-01-05T04:23:53.680Z,1.83
2023-01-05T04:26:20.156Z,2.67
2023-01-05T04:28:49.528Z,2.43
2023-01-05T04:31:18.004Z,1.80
2023-01-05T04:33:45.456Z,1.80
2023-01-05T04:36:16.059Z,2.10
2023-01-05T04:38:42.583Z,2.57
2023-01-05T04:41:09.313Z,2.47
2023-01-05T04:43:35.890Z,2.63
2023-01-05T04:46:02.845Z,2.03
2023-01-05T04:48:31.834Z,1.80
2023-01-05T04:50:59.053Z,2.30
2023-01-05T04:53:33.470Z,2.07
2023-01-05T04:56:00.313Z,1.90
2023-01-05T04:58:32.401Z,1.87
2023-01-05T05:00:58.922Z,2.80
2023-01-05T05:03:32.912Z,2.60
2023-01-05T05:06:00.745Z,2.43
2023-01-05T05:08:28.464Z,1.80
2023-01-05T05:10:56.005Z,2.37
2023-01-05T05:13:23.210Z,2.50
2023-01-05T05:15:52.482Z,1.90
2023-01-05T05:18:19.505Z,2.07
2023-01-05T05:20:51.753Z,2.23
2023-01-05T05:23:19.096Z,2.03
2023-01-05T05:25:48.963Z,1.97
2023-01-05T05:28:15.502Z,2.80
2023-01-05T05:30:41.929Z,2.40
2023-01-05T05:33:08.356Z,2.33
2023-01-05T05:35:34.755Z,1.73
2023-01-05T05:38:01.397Z,2.10
2023-01-05T05:40:28.304Z,1.93
2023-01-05T05:42:54.907Z,2.13
2023-01-05T05:45:21.295Z,1.80
2023-01-05T05:47:47.789Z,1.93
2023-01-05T05:50:14.198Z,2.20
2023-01-05T05:52:40.835Z,2.17
2023-01-05T05:55:08.051Z,2.40
2023-01-05T05:57:34.656Z,2.07
2023-01-05T06:00:01.868Z,2.03
2023-01-05T06:02:40.017Z,2.17
2023-01-05T06:05:07.048Z,2.33
2023-01-05T06:07:33.476Z,2.37
2023-01-05T06:10:00.032Z,1.60
2023-01-05T06:12:26.478Z,1.83
2023-01-05T06:14:53.186Z,2.13
2023-01-05T06:17:19.665Z,2.13
2023-01-05T06:19:46.103Z,1.77
2023-01-05T06:22:12.614Z,1.87
2023-01-05T06:24:39.191Z,1.77
2023-01-05T06:27:05.747Z,2.10
2023-01-05T06:29:32.185Z,2.30
2023-01-05T06:31:58.635Z,1.93
2023-01-05T06:34:25.171Z,2.03
2023-01-05T06:36:51.569Z,1.77
2023-01-05T06:39:18.169Z,2.07
2023-01-05T06:41:44.718Z,1.70
2023-01-05T06:44:11.433Z,1.97
2023-01-05T06:46:37.950Z,2.03
2023-01-05T06:49:04.509Z,2.17
2023-01-05T06:51:31.743Z,1.90
2023-01-05T06:53:58.116Z,2.20
2023-01-05T06:56:24.587Z,1.90
2023-01-05T06:58:51.090Z,1.83
2023-01-05T07:01:17.699Z,2.30
2023-01-05T07:03:44.275Z,3.10
2023-01-05T07:06:15.179Z,2.23
2023-01-05T07:08:42.960Z,1.90
2023-01-05T07:11:09.722Z,2.43
2023-01-05T07:13:36.558Z,1.83
2023-01-05T07:16:03.103Z,2.20
2023-01-05T07:18:29.555Z,2.67
2023-01-05T07:20:56.105Z,2.30
2023-01-05T07:23:22.503Z,1.97
2023-01-05T07:25:48.933Z,2.27
2023-01-05T07:28:15.473Z,1.83
2023-01-05T07:30:41.975Z,1.90
2023-01-05T07:33:08.667Z,1.80
2023-01-05T07:35:35.132Z,2.10
2023-01-05T07:38:01.540Z,2.07
2023-01-05T07:40:28.433Z,2.20
2023-01-05T07:42:55.106Z,1.60
2023-01-05T07:45:21.679Z,2.10
2023-01-05T07:47:48.112Z,2.23
2023-01-05T07:50:14.667Z,2.80
2023-01-05T07:52:41.135Z,2.00
2023-01-05T07:55:08.158Z,2.17
2023-01-05T07:57:34.583Z,1.60
2023-01-05T08:00:02.323Z,2.47
2023-01-05T08:02:38.155Z,2.40
2023-01-05T08:05:04.983Z,2.77
2023-01-05T08:07:31.418Z,2.10
2023-01-05T08:10:16.380Z,3.03
2023-01-05T08:13:01.265Z,2.00
2023-01-05T08:15:27.674Z,2.20
2023-01-05T08:17:54.118Z,2.17
2023-01-05T08:20:20.580Z,2.20
2023-01-05T08:22:51.399Z,1.77
2023-01-05T08:25:18.235Z,5.03
2023-01-05T08:27:45.542Z,3.43
2023-01-05T08:30:12.744Z,2.47
2023-01-05T08:32:40.417Z,2.40
2023-01-05T08:35:07.324Z,2.10
2023-01-05T08:37:33.728Z,2.50
2023-01-05T08:40:00.254Z,2.30
2023-01-05T08:42:26.711Z,2.40
2023-01-05T08:44:53.129Z,2.93
2023-01-05T08:47:20.209Z,2.80
2023-01-05T08:49:49.732Z,2.80
2023-01-05T08:52:16.159Z,2.10
2023-01-05T08:54:43.853Z,2.83
2023-01-05T08:57:10.396Z,2.87
2023-01-05T08:59:36.925Z,2.43
2023-01-05T09:02:03.451Z,2.80
2023-01-05T09:04:30.016Z,2.20
2023-01-05T09:06:56.485Z,2.03
2023-01-05T09:09:24.336Z,2.30
2023-01-05T09:11:51.778Z,2.30
2023-01-05T09:14:18.761Z,2.70
2023-01-05T09:19:31.667Z,3.10
2023-01-05T09:21:58.402Z,3.10
2023-01-05T09:24:24.904Z,3.87
2023-01-05T09:26:51.388Z,3.57
2023-01-05T09:29:17.879Z,3.27
2023-01-05T09:31:44.573Z,3.30
2023-01-05T09:34:11.245Z,3.20
2023-01-05T09:36:41.417Z,3.57
2023-01-05T09:39:07.904Z,4.00
2023-01-05T09:41:44.966Z,3.00
2023-01-05T09:44:53.962Z,3.30
2023-01-05T09:47:41.257Z,2.90
2023-01-05T09:50:18.663Z,2.70
2023-01-05T09:52:45.255Z,4.10
2023-01-05T09:55:19.678Z,3.10
2023-01-05T09:57:54.642Z,2.47
2023-01-05T10:00:24.240Z,2.60
2023-01-05T10:02:57.862Z,2.57
2023-01-05T10:05:27.484Z,2.93
2023-01-05T10:08:08.019Z,2.77
2023-01-05T10:11:21.165Z,2.40
2023-01-05T10:14:06.548Z,2.50
2023-01-05T10:16:33.203Z,2.70
2023-01-05T10:19:01.560Z,3.73
2023-01-05T10:21:35.056Z,2.23
2023-01-05T10:24:19.242Z,2.70
2023-01-05T10:27:24.798Z,2.93
2023-01-05T10:30:17.651Z,2.93
2023-01-05T10:33:25.816Z,3.20
2023-01-05T10:36:10.407Z,2.57
2023-01-05T10:39:06.943Z,3.20
2023-01-05T10:41:42.202Z,2.70
2023-01-05T10:44:34.632Z,2.50
2023-01-05T10:47:01.866Z,3.17
2023-01-05T10:49:31.192Z,3.03
2023-01-05T10:52:00.149Z,2.77
2023-01-05T10:54:43.183Z,2.47
2023-01-05T10:57:34.060Z,3.03
2023-01-05T11:00:12.218Z,2.63
2023-01-05T11:02:42.812Z,2.83
2023-01-05T11:05:09.953Z,3.00
2023-01-05T11:07:54.952Z,2.93
2023-01-05T11:10:25.885Z,2.50
2023-01-05T11:13:02.307Z,2.60
2023-01-05T11:15:31.834Z,2.50
2023-01-05T11:17:58.693Z,2.60
2023-01-05T11:20:29.047Z,3.10
2023-01-05T11:22:55.577Z,3.33
2023-01-05T11:25:29.744Z,2.57
2023-01-05T11:28:09.336Z,4.70
2023-01-05T11:30:36.815Z,2.97
2023-01-05T11:33:03.686Z,2.83
2023-01-05T11:35:37.672Z,2.83
2023-01-05T11:38:04.525Z,2.83
2023-01-05T11:40:34.374Z,2.57
2023-01-05T11:43:09.250Z,3.40
2023-01-05T11:45:45.202Z,2.93
2023-01-05T11:48:19.469Z,2.27
2023-01-05T11:50:49.278Z,3.10
2023-01-05T11:53:25.139Z,2.37
2023-01-05T11:56:23.706Z,2.60
2023-01-05T11:58:54.700Z,2.60
2023-01-05T12:01:57.372Z,2.97
2023-01-05T12:04:45.119Z,2.93
2023-01-05T12:07:23.094Z,2.63
2023-01-05T12:10:17.720Z,2.70
2023-01-05T12:13:24.568Z,2.77
2023-01-05T12:16:16.233Z,2.50
2023-01-05T12:19:07.704Z,4.93
2023-01-05T12:22:02.148Z,4.47
2023-01-05T12:24:36.882Z,2.97
2023-01-05T12:27:19.794Z,2.40
2023-01-05T12:35:54.569Z,3.07
2023-01-05T12:38:36.654Z,5.67
2023-01-05T12:41:16.788Z,4.43
2023-01-05T12:44:25.346Z,5.10
2023-01-05T12:47:16.649Z,5.67
2023-01-05T12:49:52.703Z,2.67
2023-01-05T12:52:36.178Z,3.63
2023-01-05T12:55:13.020Z,3.57
2023-01-05T12:57:45.452Z,3.87
2023-01-05T13:00:18.858Z,3.50
2023-01-05T13:03:01.176Z,2.90
2023-01-05T13:05:34.426Z,2.80
2023-01-05T13:08:42.133Z,2.70
2023-01-05T13:11:33.882Z,2.23
2023-01-05T13:14:05.842Z,3.10
2023-01-05T13:16:45.362Z,3.20
2023-01-05T13:19:28.323Z,3.03
2023-01-05T13:21:57.372Z,3.10
2023-01-05T13:24:35.146Z,3.70
2023-01-05T13:27:02.913Z,3.17
2023-01-05T13:29:36.952Z,2.63
2023-01-05T13:32:12.515Z,3.60
2023-01-05T13:35:08.848Z,4.10
2023-01-05T13:38:14.532Z,3.97
2023-01-05T13:40:53.123Z,3.40
2023-01-05T13:43:50.706Z,2.87
2023-01-05T13:46:41.983Z,3.30
2023-01-05T13:49:22.310Z,4.47
2023-01-05T13:51:54.608Z,4.60
2023-01-05T13:54:49.472Z,4.30
2023-01-05T13:57:24.770Z,4.03
2023-01-05T14:00:06.827Z,4.23
2023-01-05T14:02:43.616Z,4.57
2023-01-05T14:05:31.762Z,3.87
2023-01-05T14:08:02.439Z,4.63
2023-01-05T14:10:32.287Z,4.30
2023-01-05T14:13:00.203Z,3.93
2023-01-05T14:15:35.420Z,4.77
2023-01-05T14:18:04.162Z,5.30
2023-01-05T14:20:33.646Z,4.07
2023-01-05T14:23:01.769Z,3.07
2023-01-05T14:25:40.182Z,3.33
2023-01-05T14:28:28.421Z,2.80
2023-01-05T14:31:16.831Z,3.47
2023-01-05T14:33:58.416Z,4.03
2023-01-05T14:36:31.409Z,3.17
2023-01-05T14:38:59.845Z,4.10
2023-01-05T14:41:29.038Z,3.90
2023-01-05T14:44:01.497Z,3.33
2023-01-05T14:46:42.000Z,2.97
2023-01-05T14:49:16.728Z,3.30
2023-01-05T14:51:54.116Z,3.10
2023-01-05T14:54:40.978Z,2.80
2023-01-05T14:57:36.397Z,3.37
2023-01-05T15:00:15.431Z,3.20
2023-01-05T15:03:09.764Z,5.00
2023-01-05T15:05:46.618Z,9.87
2023-01-05T15:08:24.851Z,12.97
2023-01-05T15:11:04.205Z,16.67
2023-01-05T15:14:07.413Z,16.77
2023-01-05T15:16:58.706Z,13.10
2023-01-05T15:19:31.183Z,3.77
2023-01-05T15:22:18.635Z,3.70
2023-01-05T15:24:58.231Z,2.73
2023-01-05T15:28:02.320Z,2.73
2023-01-05T15:30:52.111Z,5.07
2023-01-05T15:33:35.902Z,3.67
2023-01-05T15:36:05.177Z,8.10
2023-01-05T15:38:42.927Z,4.30
2023-01-05T15:41:11.944Z,7.17
2023-01-05T15:43:41.106Z,5.57
2023-01-05T15:46:10.150Z,4.10
2023-01-05T15:48:45.515Z,5.37
2023-01-05T15:51:23.390Z,7.17
2023-01-05T15:53:55.784Z,5.00
2023-01-05T15:56:39.570Z,4.37
2023-01-05T15:59:22.105Z,5.47
2023-01-05T16:01:48.545Z,3.93
2023-01-05T16:04:15.435Z,3.63
2023-01-05T16:06:46.275Z,4.20
2023-01-05T16:09:38.507Z,3.80
2023-01-05T16:12:23.330Z,4.27
2023-01-05T16:15:01.489Z,4.30
2023-01-05T16:17:31.221Z,3.17
2023-01-05T16:20:09.357Z,4.23
2023-01-05T16:23:00.981Z,3.80
2023-01-05T16:25:30.605Z,4.27
2023-01-05T16:28:07.171Z,4.43
2023-01-05T16:30:38.046Z,3.90
2023-01-05T16:33:13.475Z,3.90
2023-01-05T16:35:48.099Z,3.50
2023-01-05T16:38:20.530Z,3.60
2023-01-05T16:40:46.916Z,3.27
2023-01-05T16:43:34.544Z,3.57
2023-01-05T16:46:18.900Z,6.67
2023-01-05T16:48:49.334Z,4.50
2023-01-05T16:51:21.841Z,3.20
2023-01-05T16:54:04.431Z,3.33
2023-01-05T16:56:33.744Z,4.13
2023-01-05T16:59:02.280Z,2.60
2023-01-05T17:01:41.844Z,2.90
2023-01-05T17:04:15.948Z,3.80
2023-01-05T17:06:48.024Z,4.37
2023-01-05T17:09:25.438Z,3.33
2023-01-05T17:11:52.083Z,3.00
2023-01-05T17:14:20.181Z,3.23
2023-01-05T17:16:47.612Z,3.63
2023-01-05T17:19:16.325Z,3.50
2023-01-05T17:21:53.660Z,3.60
2023-01-05T17:24:20.255Z,3.17
2023-01-05T17:26:46.912Z,3.20
2023-01-05T17:29:27.730Z,3.40
2023-01-05T17:31:54.893Z,3.87
2023-01-05T17:34:22.151Z,3.73
2023-01-05T17:36:49.991Z,3.97
2023-01-05T17:39:18.854Z,4.70
2023-01-05T17:41:45.531Z,4.57
2023-01-05T17:44:12.161Z,4.63
2023-01-05T17:46:41.801Z,4.63
2023-01-05T17:49:20.969Z,5.03
2023-01-05T17:51:47.791Z,4.33
2023-01-05T17:54:14.363Z,4.03
2023-01-05T17:56:40.788Z,3.43
2023-01-05T17:59:07.248Z,4.43
2023-01-05T18:01:33.990Z,4.70
2023-01-05T18:04:01.181Z,3.40
2023-01-05T18:06:28.204Z,3.70
2023-01-05T18:08:54.931Z,5.13
2023-01-05T18:11:21.556Z,4.10
2023-01-05T18:13:48.042Z,5.40
2023-01-05T18:16:15.406Z,3.07
2023-01-05T18:18:41.882Z,5.33
2023-01-05T18:21:08.322Z,5.70
2023-01-05T18:23:35.114Z,5.63
2023-01-05T18:26:07.101Z,4.90
2023-01-05T18:28:37.383Z,5.00
2023-01-05T18:31:15.444Z,4.00
2023-01-05T18:33:42.063Z,4.10
2023-01-05T18:36:12.775Z,4.03
2023-01-05T18:38:40.116Z,21.83
2023-01-05T18:41:06.863Z,22.83
2023-01-05T18:43:34.017Z,20.97
2023-01-05T18:46:01.100Z,16.43
2023-01-05T18:48:27.529Z,16.70
2023-01-05T18:50:54.128Z,14.67
2023-01-05T18:53:21.668Z,12.90
2023-01-05T18:55:48.948Z,12.93
2023-01-05T18:58:15.613Z,13.70
2023-01-05T19:00:43.720Z,12.00
2023-01-05T19:03:10.781Z,12.20
2023-01-05T19:05:41.968Z,5.17
2023-01-05T19:08:09.871Z,4.07
2023-01-05T19:10:37.277Z,4.00
2023-01-05T19:13:04.438Z,4.17
2023-01-05T19:15:33.550Z,3.80
2023-01-05T19:18:00.295Z,2.70
2023-01-05T19:20:26.767Z,2.20
2023-01-05T19:22:53.231Z,2.03
2023-01-05T19:25:19.883Z,2.00
2023-01-05T19:27:46.472Z,3.90
2023-01-05T19:30:14.909Z,4.80
2023-01-05T19:32:41.367Z,4.47
2023-01-05T19:35:07.962Z,4.53
2023-01-05T19:37:35.520Z,3.23
2023-01-05T19:40:02.672Z,3.60
2023-01-05T19:42:30.706Z,2.37
2023-01-05T19:44:57.324Z,2.87
2023-01-05T19:47:23.753Z,2.30
2023-01-05T19:49:50.192Z,2.40
2023-01-05T19:52:16.670Z,5.80
2023-01-05T19:54:43.169Z,4.40
2023-01-05T19:57:09.655Z,2.67
2023-01-05T19:59:36.279Z,3.40
2023-01-05T20:02:04.838Z,2.67
2023-01-05T20:04:32.253Z,3.50
2023-01-05T20:06:59.250Z,2.83
2023-01-05T20:09:25.864Z,3.00
2023-01-05T20:11:59.542Z,2.70
2023-01-05T20:14:32.885Z,3.43
2023-01-05T20:17:02.449Z,2.80
2023-01-05T20:19:31.261Z,3.00
2023-01-05T20:21:59.239Z,2.77
2023-01-05T20:24:30.110Z,2.90
2023-01-05T20:26:59.986Z,2.77
2023-01-05T20:29:27.431Z,2.63
2023-01-05T20:32:01.559Z,2.80
2023-01-05T20:34:32.101Z,3.53
2023-01-05T20:36:59.668Z,5.17
2023-01-05T20:39:26.111Z,3.50
2023-01-05T20:41:53.960Z,6.27
2023-01-05T20:44:23.684Z,4.10
2023-01-05T20:46:53.784Z,2.90
2023-01-05T20:49:21.812Z,2.57
2023-01-05T20:51:48.616Z,2.80
2023-01-05T20:54:15.174Z,2.73
2023-01-05T20:56:43.695Z,2.60
2023-01-05T20:59:19.527Z,2.50
2023-01-05T21:01:46.751Z,2.30
2023-01-05T21:04:13.723Z,2.90
2023-01-05T21:06:41.543Z,3.90
2023-01-05T21:09:08.609Z,4.07
2023-01-05T21:11:36.078Z,3.70
2023-01-05T21:14:03.909Z,4.33
2023-01-05T21:16:34.596Z,3.30
2023-01-05T21:19:01.967Z,3.90
2023-01-05T21:21:29.544Z,3.23
2023-01-05T21:23:56.286Z,3.67
2023-01-05T21:26:23.489Z,4.53
2023-01-05T21:28:51.865Z,6.93
2023-01-05T21:31:22.784Z,8.97
2023-01-05T21:33:49.779Z,3.97
2023-01-05T21:36:22.619Z,2.60
2023-01-05T21:39:01.602Z,2.10
2023-01-05T21:41:49.828Z,1.70
2023-01-05T21:44:16.983Z,2.87
2023-01-05T21:46:44.243Z,4.50
2023-01-05T21:49:12.005Z,2.30
2023-01-05T21:51:57.848Z,2.97
2023-01-05T21:54:43.829Z,2.90
2023-01-05T21:57:11.021Z,3.57
2023-01-05T21:59:38.892Z,2.30
2023-01-05T22:02:05.443Z,1.63
2023-01-05T22:04:32.001Z,1.43
2023-01-05T22:06:59.453Z,1.07
2023-01-05T22:09:26.003Z,1.00
2023-01-05T22:11:52.494Z,1.00
2023-01-05T22:14:18.923Z,1.00
2023-01-05T22:16:45.322Z,1.30
2023-01-05T22:19:12.007Z,1.40
2023-01-05T22:21:38.691Z,3.83
2023-01-05T22:24:06.424Z,1.70
2023-01-05T22:26:32.945Z,1.67
2023-01-05T22:28:59.409Z,2.27
2023-01-05T22:31:29.551Z,2.40
2023-01-05T22:33:58.434Z,1.37
2023-01-05T22:36:26.714Z,2.80
2023-01-05T22:38:54.093Z,1.90
2023-01-05T22:41:26.732Z,2.00
2023-01-05T22:43:53.542Z,1.70
2023-01-05T22:46:26.247Z,2.63
2023-01-05T22:48:54.641Z,2.07
2023-01-05T22:51:24.323Z,1.63
2023-01-05T22:53:51.294Z,2.10
2023-01-05T22:56:19.984Z,1.90
2023-01-05T22:58:46.774Z,1.70
2023-01-05T23:01:18.584Z,2.07
2023-01-05T23:03:45.292Z,2.13
2023-01-05T23:06:12.217Z,2.07
2023-01-05T23:08:40.546Z,2.27
2023-01-05T23:11:10.866Z,2.40
2023-01-05T23:13:37.946Z,2.10
2023-01-05T23:16:05.459Z,2.70
2023-01-05T23:18:33.852Z,2.23
2023-01-05T23:21:02.869Z,1.70
2023-01-05T23:23:31.120Z,2.10
2023-01-05T23:25:57.588Z,2.70
2023-01-05T23:28:26.201Z,1.63
2023-01-05T23:30:54.566Z,2.03
2023-01-05T23:33:25.215Z,1.90
2023-01-05T23:35:53.331Z,1.80
2023-01-05T23:38:20.268Z,1.40
2023-01-05T23:40:49.521Z,1.50
2023-01-05T23:43:18.926Z,1.60
2023-01-05T23:45:45.993Z,1.70
2023-01-05T23:48:12.951Z,1.60
2023-01-05T23:50:43.690Z,1.87
2023-01-05T23:53:11.377Z,1.70
2023-01-05T23:55:38.707Z,1.87
2023-01-05T23:58:05.911Z,2.23
